sensor_id;sensor_type;location;lat;lon;timestamp;pressure;altitude;pressure_sealevel;temperature;humidity
13767;BME280;47980;48.794;9.176;2023-04-07T00:00:06;98271.09;;;8.47;85.83
13767;BME280;47980;48.794;9.176;2023-04-07T00:02:38;98272.78;;;8.42;86.13
13767;BME280;47980;48.794;9.176;2023-04-07T00:05:10;98281.19;;;8.44;85.67
13767;BME280;47980;48.794;9.176;2023-04-07T00:07:42;98265.75;;;8.38;86.69
13767;BME280;47980;48.794;9.176;2023-04-07T00:10:14;98260.19;;;8.48;86.49
13767;BME280;47980;48.794;9.176;2023-04-07T00:12:45;98261.16;;;8.52;87.88
13767;BME280;47980;48.794;9.176;2023-04-07T00:15:17;98262.75;;;8.62;87.66
13767;BME280;47980;48.794;9.176;2023-04-07T00:17:49;98255.47;;;8.36;85.82
13767;BME280;47980;48.794;9.176;2023-04-07T00:20:20;98259.25;;;8.44;87.21
13767;BME280;47980;48.794;9.176;2023-04-07T00:22:53;98253.03;;;8.49;86.40
13767;BME280;47980;48.794;9.176;2023-04-07T00:25:25;98252.75;;;8.50;87.19
13767;BME280;47980;48.794;9.176;2023-04-07T00:27:56;98252.94;;;8.54;87.03
13767;BME280;47980;48.794;9.176;2023-04-07T00:30:28;98244.50;;;8.52;86.50
13767;BME280;47980;48.794;9.176;2023-04-07T00:32:59;98240.16;;;8.47;86.26
13767;BME280;47980;48.794;9.176;2023-04-07T00:35:31;98239.53;;;8.50;86.93
13767;BME280;47980;48.794;9.176;2023-04-07T00:38:04;98230.66;;;8.46;86.63
13767;BME280;47980;48.794;9.176;2023-04-07T00:40:35;98234.22;;;8.41;85.03
13767;BME280;47980;48.794;9.176;2023-04-07T00:43:07;98226.16;;;8.47;85.75
13767;BME280;47980;48.794;9.176;2023-04-07T00:45:39;98227.09;;;8.59;86.35
13767;BME280;47980;48.794;9.176;2023-04-07T00:48:10;98230.34;;;8.39;85.69
13767;BME280;47980;48.794;9.176;2023-04-07T00:50:41;98218.13;;;8.29;88.01
13767;BME280;47980;48.794;9.176;2023-04-07T00:53:14;98219.94;;;8.42;89.00
13767;BME280;47980;48.794;9.176;2023-04-07T00:55:46;98215.09;;;8.53;88.78
13767;BME280;47980;48.794;9.176;2023-04-07T00:58:18;98207.66;;;8.55;88.73
13767;BME280;47980;48.794;9.176;2023-04-07T01:00:55;98203.59;;;8.49;88.66
13767;BME280;47980;48.794;9.176;2023-04-07T01:03:33;98204.06;;;8.51;87.83
13767;BME280;47980;48.794;9.176;2023-04-07T01:06:07;98198.19;;;8.54;89.72
13767;BME280;47980;48.794;9.176;2023-04-07T01:08:47;98196.75;;;8.57;89.08
13767;BME280;47980;48.794;9.176;2023-04-07T01:11:23;98194.13;;;8.57;88.46
13767;BME280;47980;48.794;9.176;2023-04-07T01:13:57;98187.31;;;8.64;88.11
13767;BME280;47980;48.794;9.176;2023-04-07T01:16:32;98190.09;;;8.51;87.99
13767;BME280;47980;48.794;9.176;2023-04-07T01:19:13;98180.75;;;8.53;88.80
13767;BME280;47980;48.794;9.176;2023-04-07T01:21:48;98179.03;;;8.49;89.34
13767;BME280;47980;48.794;9.176;2023-04-07T01:24:38;98182.78;;;8.48;90.16
13767;BME280;47980;48.794;9.176;2023-04-07T01:27:20;98174.69;;;8.53;89.29
13767;BME280;47980;48.794;9.176;2023-04-07T01:29:54;98175.00;;;8.51;89.98
13767;BME280;47980;48.794;9.176;2023-04-07T01:32:26;98169.06;;;8.46;89.30
13767;BME280;47980;48.794;9.176;2023-04-07T01:34:58;98170.81;;;8.50;89.43
13767;BME280;47980;48.794;9.176;2023-04-07T01:37:30;98172.81;;;8.53;90.25
13767;BME280;47980;48.794;9.176;2023-04-07T01:40:02;98174.22;;;8.51;89.06
13767;BME280;47980;48.794;9.176;2023-04-07T01:42:34;98172.19;;;8.48;89.40
13767;BME280;47980;48.794;9.176;2023-04-07T01:45:09;98170.50;;;8.52;90.11
13767;BME280;47980;48.794;9.176;2023-04-07T01:47:42;98167.06;;;8.42;90.24
13767;BME280;47980;48.794;9.176;2023-04-07T01:50:15;98162.09;;;8.50;89.02
13767;BME280;47980;48.794;9.176;2023-04-07T01:52:47;98153.78;;;8.34;88.43
13767;BME280;47980;48.794;9.176;2023-04-07T01:55:20;98148.41;;;8.39;89.18
13767;BME280;47980;48.794;9.176;2023-04-07T01:57:52;98146.53;;;8.39;89.52
13767;BME280;47980;48.794;9.176;2023-04-07T02:00:25;98152.44;;;8.45;88.60
13767;BME280;47980;48.794;9.176;2023-04-07T02:03:06;98157.44;;;8.47;88.61
13767;BME280;47980;48.794;9.176;2023-04-07T02:05:39;98152.16;;;8.55;88.40
13767;BME280;47980;48.794;9.176;2023-04-07T02:08:10;98149.66;;;8.50;88.76
13767;BME280;47980;48.794;9.176;2023-04-07T02:10:45;98144.38;;;8.50;86.79
13767;BME280;47980;48.794;9.176;2023-04-07T02:13:19;98148.22;;;8.35;87.96
13767;BME280;47980;48.794;9.176;2023-04-07T02:15:53;98149.00;;;8.44;88.21
13767;BME280;47980;48.794;9.176;2023-04-07T02:18:27;98133.41;;;8.34;87.19
13767;BME280;47980;48.794;9.176;2023-04-07T02:21:00;98138.53;;;8.31;86.88
13767;BME280;47980;48.794;9.176;2023-04-07T02:23:34;98132.88;;;8.46;86.82
13767;BME280;47980;48.794;9.176;2023-04-07T02:26:06;98127.41;;;8.42;87.09
13767;BME280;47980;48.794;9.176;2023-04-07T02:28:37;98131.22;;;8.28;84.63
13767;BME280;47980;48.794;9.176;2023-04-07T02:31:10;98129.72;;;8.35;85.25
13767;BME280;47980;48.794;9.176;2023-04-07T02:33:42;98121.78;;;8.35;85.63
13767;BME280;47980;48.794;9.176;2023-04-07T02:36:14;98120.59;;;8.50;84.93
13767;BME280;47980;48.794;9.176;2023-04-07T02:38:45;98123.84;;;8.47;84.78
13767;BME280;47980;48.794;9.176;2023-04-07T02:41:17;98123.06;;;8.47;84.06
13767;BME280;47980;48.794;9.176;2023-04-07T02:43:48;98114.81;;;8.48;84.49
13767;BME280;47980;48.794;9.176;2023-04-07T02:46:21;98112.47;;;8.55;84.13
13767;BME280;47980;48.794;9.176;2023-04-07T02:48:53;98112.81;;;8.54;83.07
13767;BME280;47980;48.794;9.176;2023-04-07T02:51:24;98116.53;;;8.53;83.49
13767;BME280;47980;48.794;9.176;2023-04-07T02:53:56;98107.34;;;8.59;82.43
13767;BME280;47980;48.794;9.176;2023-04-07T02:56:28;98106.56;;;8.67;83.51
13767;BME280;47980;48.794;9.176;2023-04-07T02:59:00;98107.03;;;8.60;82.66
13767;BME280;47980;48.794;9.176;2023-04-07T03:01:33;98102.38;;;8.57;82.82
13767;BME280;47980;48.794;9.176;2023-04-07T03:04:05;98099.44;;;8.50;84.50
13767;BME280;47980;48.794;9.176;2023-04-07T03:06:36;98103.63;;;8.60;84.73
13767;BME280;47980;48.794;9.176;2023-04-07T03:09:08;98105.47;;;8.59;85.17
13767;BME280;47980;48.794;9.176;2023-04-07T03:11:39;98105.50;;;8.51;85.98
13767;BME280;47980;48.794;9.176;2023-04-07T03:14:11;98098.31;;;8.60;84.78
13767;BME280;47980;48.794;9.176;2023-04-07T03:16:44;98095.84;;;8.63;85.77
13767;BME280;47980;48.794;9.176;2023-04-07T03:19:16;98095.22;;;8.58;85.06
13767;BME280;47980;48.794;9.176;2023-04-07T03:21:47;98090.84;;;8.53;86.37
13767;BME280;47980;48.794;9.176;2023-04-07T03:24:19;98086.06;;;8.47;86.67
13767;BME280;47980;48.794;9.176;2023-04-07T03:26:50;98089.47;;;8.56;86.93
13767;BME280;47980;48.794;9.176;2023-04-07T03:29:22;98089.47;;;8.56;85.99
13767;BME280;47980;48.794;9.176;2023-04-07T03:31:55;98086.50;;;8.66;83.17
13767;BME280;47980;48.794;9.176;2023-04-07T03:34:26;98081.38;;;8.52;83.23
13767;BME280;47980;48.794;9.176;2023-04-07T03:36:58;98086.53;;;8.57;82.11
13767;BME280;47980;48.794;9.176;2023-04-07T03:39:29;98079.19;;;8.63;82.09
13767;BME280;47980;48.794;9.176;2023-04-07T03:42:01;98079.53;;;8.44;81.76
13767;BME280;47980;48.794;9.176;2023-04-07T03:44:32;98078.41;;;8.45;81.70
13767;BME280;47980;48.794;9.176;2023-04-07T03:47:05;98079.66;;;8.56;82.07
13767;BME280;47980;48.794;9.176;2023-04-07T03:49:37;98074.41;;;8.39;81.87
13767;BME280;47980;48.794;9.176;2023-04-07T03:52:08;98079.97;;;8.37;81.20
13767;BME280;47980;48.794;9.176;2023-04-07T03:54:40;98082.31;;;8.48;82.88
13767;BME280;47980;48.794;9.176;2023-04-07T03:57:12;98081.25;;;8.57;82.31
13767;BME280;47980;48.794;9.176;2023-04-07T03:59:43;98077.94;;;8.60;83.06
13767;BME280;47980;48.794;9.176;2023-04-07T04:02:17;98067.38;;;8.60;82.46
13767;BME280;47980;48.794;9.176;2023-04-07T04:04:49;98071.88;;;8.60;82.08
13767;BME280;47980;48.794;9.176;2023-04-07T04:07:20;98075.16;;;8.57;82.03
13767;BME280;47980;48.794;9.176;2023-04-07T04:09:52;98068.47;;;8.59;82.14
13767;BME280;47980;48.794;9.176;2023-04-07T04:12:23;98067.38;;;8.69;82.07
13767;BME280;47980;48.794;9.176;2023-04-07T04:14:55;98064.88;;;8.64;81.83
13767;BME280;47980;48.794;9.176;2023-04-07T04:17:28;98065.03;;;8.76;82.32
13767;BME280;47980;48.794;9.176;2023-04-07T04:19:59;98065.34;;;8.75;82.49
13767;BME280;47980;48.794;9.176;2023-04-07T04:22:31;98066.91;;;8.67;81.67
13767;BME280;47980;48.794;9.176;2023-04-07T04:25:03;98060.56;;;8.68;81.08
13767;BME280;47980;48.794;9.176;2023-04-07T04:27:35;98059.44;;;8.60;80.90
13767;BME280;47980;48.794;9.176;2023-04-07T04:30:07;98065.69;;;8.64;81.81
13767;BME280;47980;48.794;9.176;2023-04-07T04:32:40;98059.31;;;8.65;81.58
13767;BME280;47980;48.794;9.176;2023-04-07T04:35:12;98054.81;;;8.57;81.85
13767;BME280;47980;48.794;9.176;2023-04-07T04:37:43;98056.38;;;8.50;81.88
13767;BME280;47980;48.794;9.176;2023-04-07T04:40:15;98062.41;;;8.59;81.23
13767;BME280;47980;48.794;9.176;2023-04-07T04:42:47;98062.41;;;8.59;81.29
13767;BME280;47980;48.794;9.176;2023-04-07T04:45:18;98061.78;;;8.62;81.51
13767;BME280;47980;48.794;9.176;2023-04-07T04:47:51;98064.88;;;8.64;82.34
13767;BME280;47980;48.794;9.176;2023-04-07T04:50:22;98060.41;;;8.64;81.60
13767;BME280;47980;48.794;9.176;2023-04-07T04:52:54;98054.16;;;8.60;82.21
13767;BME280;47980;48.794;9.176;2023-04-07T04:55:25;98056.34;;;8.67;80.68
13767;BME280;47980;48.794;9.176;2023-04-07T04:57:57;98059.91;;;8.62;82.48
13767;BME280;47980;48.794;9.176;2023-04-07T05:00:28;98058.81;;;8.63;81.70
13767;BME280;47980;48.794;9.176;2023-04-07T05:03:01;98058.22;;;8.58;82.39
13767;BME280;47980;48.794;9.176;2023-04-07T05:05:33;98064.88;;;8.64;82.42
13767;BME280;47980;48.794;9.176;2023-04-07T05:08:05;98063.97;;;8.60;80.62
13767;BME280;47980;48.794;9.176;2023-04-07T05:10:37;98067.06;;;8.62;81.53
13767;BME280;47980;48.794;9.176;2023-04-07T05:13:10;98066.13;;;8.66;80.92
13767;BME280;47980;48.794;9.176;2023-04-07T05:15:41;98070.03;;;8.69;81.95
13767;BME280;47980;48.794;9.176;2023-04-07T05:18:14;98064.13;;;8.72;82.25
13767;BME280;47980;48.794;9.176;2023-04-07T05:20:47;98063.78;;;8.74;82.98
13767;BME280;47980;48.794;9.176;2023-04-07T05:23:19;98063.34;;;8.72;81.47
13767;BME280;47980;48.794;9.176;2023-04-07T05:25:50;98065.34;;;8.75;82.27
13767;BME280;47980;48.794;9.176;2023-04-07T05:28:22;98069.09;;;8.65;81.57
13767;BME280;47980;48.794;9.176;2023-04-07T05:30:54;98069.88;;;8.57;83.35
13767;BME280;47980;48.794;9.176;2023-04-07T05:33:27;98073.31;;;8.57;81.98
13767;BME280;47980;48.794;9.176;2023-04-07T05:35:58;98069.84;;;8.74;80.64
13767;BME280;47980;48.794;9.176;2023-04-07T05:38:30;98074.84;;;8.76;80.17
13767;BME280;47980;48.794;9.176;2023-04-07T05:41:01;98069.09;;;8.82;79.90
13767;BME280;47980;48.794;9.176;2023-04-07T05:43:32;98062.38;;;8.85;80.08
13767;BME280;47980;48.794;9.176;2023-04-07T05:46:04;98071.56;;;8.87;78.13
13767;BME280;47980;48.794;9.176;2023-04-07T05:48:37;98067.66;;;9.02;77.89
13767;BME280;47980;48.794;9.176;2023-04-07T05:51:08;98071.84;;;9.12;78.05
13767;BME280;47980;48.794;9.176;2023-04-07T05:53:40;98073.06;;;9.23;77.83
13767;BME280;47980;48.794;9.176;2023-04-07T05:56:11;98069.44;;;9.28;77.98
13767;BME280;47980;48.794;9.176;2023-04-07T05:58:45;98071.31;;;9.27;77.65
13767;BME280;47980;48.794;9.176;2023-04-07T06:01:16;98069.91;;;9.30;79.00
13767;BME280;47980;48.794;9.176;2023-04-07T06:03:49;98078.63;;;9.30;78.10
13767;BME280;47980;48.794;9.176;2023-04-07T06:06:21;98072.53;;;9.38;77.06
13767;BME280;47980;48.794;9.176;2023-04-07T06:08:52;98072.72;;;9.33;78.21
13767;BME280;47980;48.794;9.176;2023-04-07T06:11:25;98073.63;;;9.29;78.00
13767;BME280;47980;48.794;9.176;2023-04-07T06:13:57;98074.41;;;9.38;79.57
13767;BME280;47980;48.794;9.176;2023-04-07T06:16:28;98070.66;;;9.48;78.19
13767;BME280;47980;48.794;9.176;2023-04-07T06:19:01;98080.56;;;9.59;77.43
13767;BME280;47980;48.794;9.176;2023-04-07T06:21:33;98070.47;;;9.53;78.32
13767;BME280;47980;48.794;9.176;2023-04-07T06:24:05;98081.50;;;9.55;78.37
13767;BME280;47980;48.794;9.176;2023-04-07T06:26:38;98074.13;;;9.22;77.75
13767;BME280;47980;48.794;9.176;2023-04-07T06:29:10;98074.63;;;9.07;79.26
13767;BME280;47980;48.794;9.176;2023-04-07T06:31:41;98073.56;;;9.08;76.91
13767;BME280;47980;48.794;9.176;2023-04-07T06:34:14;98070.75;;;9.51;74.89
13767;BME280;47980;48.794;9.176;2023-04-07T06:36:47;98083.94;;;9.69;75.07
13767;BME280;47980;48.794;9.176;2023-04-07T06:39:18;98081.72;;;9.32;75.89
13767;BME280;47980;48.794;9.176;2023-04-07T06:41:50;98080.38;;;9.64;77.10
13767;BME280;47980;48.794;9.176;2023-04-07T06:44:22;98076.88;;;9.43;77.00
13767;BME280;47980;48.794;9.176;2023-04-07T06:46:53;98072.41;;;9.64;77.92
13767;BME280;47980;48.794;9.176;2023-04-07T06:49:26;98070.44;;;10.12;75.58
13767;BME280;47980;48.794;9.176;2023-04-07T06:51:58;98077.19;;;10.09;74.68
13767;BME280;47980;48.794;9.176;2023-04-07T06:54:29;98067.59;;;9.96;75.47
13767;BME280;47980;48.794;9.176;2023-04-07T06:57:01;98073.59;;;9.84;74.63
13767;BME280;47980;48.794;9.176;2023-04-07T06:59:32;98065.81;;;9.79;75.08
13767;BME280;47980;48.794;9.176;2023-04-07T07:02:04;98068.78;;;10.07;73.59
13767;BME280;47980;48.794;9.176;2023-04-07T07:04:37;98065.66;;;10.05;73.88
13767;BME280;47980;48.794;9.176;2023-04-07T07:07:09;98072.94;;;10.17;72.78
13767;BME280;47980;48.794;9.176;2023-04-07T07:09:41;98064.94;;;10.26;72.91
13767;BME280;47980;48.794;9.176;2023-04-07T07:12:12;98068.56;;;10.12;72.72
13767;BME280;47980;48.794;9.176;2023-04-07T07:14:44;98068.50;;;10.30;72.23
13767;BME280;47980;48.794;9.176;2023-04-07T07:17:16;98073.81;;;9.71;74.20
13767;BME280;47980;48.794;9.176;2023-04-07T07:19:49;98066.75;;;10.34;73.93
13767;BME280;47980;48.794;9.176;2023-04-07T07:22:20;98070.19;;;9.75;73.53
13767;BME280;47980;48.794;9.176;2023-04-07T07:24:52;98067.59;;;9.67;75.40
13767;BME280;47980;48.794;9.176;2023-04-07T07:27:23;98063.91;;;9.88;75.76
13767;BME280;47980;48.794;9.176;2023-04-07T07:29:55;98069.38;;;10.13;73.46
13767;BME280;47980;48.794;9.176;2023-04-07T07:32:26;98058.19;;;10.49;72.50
13767;BME280;47980;48.794;9.176;2023-04-07T07:34:59;98075.47;;;10.55;69.73
13767;BME280;47980;48.794;9.176;2023-04-07T07:37:31;98074.41;;;10.35;71.56
13767;BME280;47980;48.794;9.176;2023-04-07T07:40:03;98071.56;;;10.11;73.55
13767;BME280;47980;48.794;9.176;2023-04-07T07:42:34;98082.06;;;9.69;75.44
13767;BME280;47980;48.794;9.176;2023-04-07T07:45:07;98078.88;;;9.84;73.98
13767;BME280;47980;48.794;9.176;2023-04-07T07:47:38;98082.72;;;9.57;76.23
13767;BME280;47980;48.794;9.176;2023-04-07T07:50:11;98081.78;;;9.62;77.33
13767;BME280;47980;48.794;9.176;2023-04-07T07:52:43;98077.00;;;10.15;75.33
13767;BME280;47980;48.794;9.176;2023-04-07T07:55:15;98082.94;;;10.11;74.86
13767;BME280;47980;48.794;9.176;2023-04-07T07:57:46;98078.78;;;10.85;74.17
13767;BME280;47980;48.794;9.176;2023-04-07T08:00:18;98086.34;;;11.29;72.54
13767;BME280;47980;48.794;9.176;2023-04-07T08:02:50;98082.56;;;11.18;68.87
13767;BME280;47980;48.794;9.176;2023-04-07T08:05:23;98078.75;;;11.52;70.55
13767;BME280;47980;48.794;9.176;2023-04-07T08:07:54;98077.97;;;12.13;68.33
13767;BME280;47980;48.794;9.176;2023-04-07T08:10:26;98078.81;;;12.41;66.84
13767;BME280;47980;48.794;9.176;2023-04-07T08:12:57;98085.94;;;12.25;65.70
13767;BME280;47980;48.794;9.176;2023-04-07T08:15:29;98083.75;;;11.78;67.35
13767;BME280;47980;48.794;9.176;2023-04-07T08:18:00;98081.75;;;11.63;67.19
13767;BME280;47980;48.794;9.176;2023-04-07T08:20:34;98084.09;;;11.89;66.31
13767;BME280;47980;48.794;9.176;2023-04-07T08:23:06;98085.91;;;12.49;64.23
13767;BME280;47980;48.794;9.176;2023-04-07T08:25:38;98100.03;;;11.76;64.66
13767;BME280;47980;48.794;9.176;2023-04-07T08:28:10;98093.38;;;11.70;63.47
13767;BME280;47980;48.794;9.176;2023-04-07T08:30:44;98091.63;;;11.87;65.14
13767;BME280;47980;48.794;9.176;2023-04-07T08:33:19;98089.97;;;12.07;64.67
13767;BME280;47980;48.794;9.176;2023-04-07T08:35:52;98096.13;;;11.62;66.51
13767;BME280;47980;48.794;9.176;2023-04-07T08:38:23;98094.50;;;11.94;65.66
13767;BME280;47980;48.794;9.176;2023-04-07T08:40:59;98097.28;;;11.27;69.39
13767;BME280;47980;48.794;9.176;2023-04-07T08:43:32;98095.81;;;11.63;68.12
13767;BME280;47980;48.794;9.176;2023-04-07T08:46:08;98097.03;;;11.90;67.49
13767;BME280;47980;48.794;9.176;2023-04-07T08:48:43;98098.34;;;12.33;65.24
13767;BME280;47980;48.794;9.176;2023-04-07T08:51:19;98084.72;;;12.63;62.77
13767;BME280;47980;48.794;9.176;2023-04-07T08:53:59;98094.56;;;12.34;64.19
13767;BME280;47980;48.794;9.176;2023-04-07T08:56:36;98085.31;;;12.03;63.50
13767;BME280;47980;48.794;9.176;2023-04-07T08:59:11;98093.13;;;12.77;63.55
13767;BME280;47980;48.794;9.176;2023-04-07T09:01:44;98090.50;;;12.65;63.60
13767;BME280;47980;48.794;9.176;2023-04-07T09:04:16;98092.28;;;12.89;61.09
13767;BME280;47980;48.794;9.176;2023-04-07T09:06:49;98093.44;;;13.32;61.04
13767;BME280;47980;48.794;9.176;2023-04-07T09:09:21;98093.25;;;12.16;63.06
13767;BME280;47980;48.794;9.176;2023-04-07T09:11:53;98100.66;;;13.03;62.33
13767;BME280;47980;48.794;9.176;2023-04-07T09:14:25;98108.22;;;13.61;60.42
13767;BME280;47980;48.794;9.176;2023-04-07T09:16:57;98106.75;;;13.32;60.48
13767;BME280;47980;48.794;9.176;2023-04-07T09:19:29;98095.00;;;13.64;60.61
13767;BME280;47980;48.794;9.176;2023-04-07T09:22:02;98099.50;;;13.16;60.38
13767;BME280;47980;48.794;9.176;2023-04-07T09:24:34;98098.16;;;12.14;61.76
13767;BME280;47980;48.794;9.176;2023-04-07T09:27:10;98089.88;;;13.12;60.84
13767;BME280;47980;48.794;9.176;2023-04-07T09:29:43;98101.19;;;13.53;59.31
13767;BME280;47980;48.794;9.176;2023-04-07T09:32:34;98086.09;;;12.85;61.47
13767;BME280;47980;48.794;9.176;2023-04-07T09:35:08;98096.81;;;13.00;61.24
13767;BME280;47980;48.794;9.176;2023-04-07T09:37:41;98098.50;;;12.93;62.50
13767;BME280;47980;48.794;9.176;2023-04-07T09:40:24;98099.84;;;13.15;61.54
13767;BME280;47980;48.794;9.176;2023-04-07T09:42:57;98103.94;;;13.12;61.22
13767;BME280;47980;48.794;9.176;2023-04-07T09:45:29;98097.41;;;13.69;59.56
13767;BME280;47980;48.794;9.176;2023-04-07T09:48:05;98091.31;;;13.69;59.45
13767;BME280;47980;48.794;9.176;2023-04-07T09:50:39;98095.53;;;13.70;59.76
13767;BME280;47980;48.794;9.176;2023-04-07T09:53:16;98095.50;;;14.02;58.65
13767;BME280;47980;48.794;9.176;2023-04-07T09:55:48;98091.81;;;14.45;58.61
13767;BME280;47980;48.794;9.176;2023-04-07T09:58:20;98095.75;;;13.96;59.44
13767;BME280;47980;48.794;9.176;2023-04-07T10:00:52;98097.19;;;13.94;59.79
13767;BME280;47980;48.794;9.176;2023-04-07T10:03:23;98099.66;;;13.52;59.36
13767;BME280;47980;48.794;9.176;2023-04-07T10:05:55;98096.56;;;13.65;59.08
13767;BME280;47980;48.794;9.176;2023-04-07T10:08:30;98098.03;;;13.19;60.14
13767;BME280;47980;48.794;9.176;2023-04-07T10:11:03;98095.56;;;12.70;63.57
13767;BME280;47980;48.794;9.176;2023-04-07T10:13:36;98093.56;;;13.23;60.77
13767;BME280;47980;48.794;9.176;2023-04-07T10:16:09;98093.72;;;13.58;60.79
13767;BME280;47980;48.794;9.176;2023-04-07T10:18:41;98091.94;;;13.97;58.46
13767;BME280;47980;48.794;9.176;2023-04-07T10:21:15;98093.09;;;13.81;57.91
13767;BME280;47980;48.794;9.176;2023-04-07T10:23:58;98089.41;;;13.38;59.80
13767;BME280;47980;48.794;9.176;2023-04-07T10:26:37;98097.28;;;12.90;61.50
13767;BME280;47980;48.794;9.176;2023-04-07T10:29:12;98095.03;;;12.92;61.83
13767;BME280;47980;48.794;9.176;2023-04-07T10:31:44;98093.97;;;13.09;60.95
13767;BME280;47980;48.794;9.176;2023-04-07T10:34:16;98104.81;;;12.60;61.78
13767;BME280;47980;48.794;9.176;2023-04-07T10:37:07;98096.53;;;13.06;61.21
13767;BME280;47980;48.794;9.176;2023-04-07T10:39:40;98096.75;;;12.44;63.05
13767;BME280;47980;48.794;9.176;2023-04-07T10:42:45;98097.22;;;13.02;62.13
13767;BME280;47980;48.794;9.176;2023-04-07T10:45:55;98094.91;;;12.73;62.33
13767;BME280;47980;48.794;9.176;2023-04-07T10:48:29;98096.22;;;13.07;60.58
13767;BME280;47980;48.794;9.176;2023-04-07T10:51:15;98099.47;;;13.60;60.36
13767;BME280;47980;48.794;9.176;2023-04-07T10:54:21;98093.78;;;13.30;60.40
13767;BME280;47980;48.794;9.176;2023-04-07T10:57:07;98093.53;;;13.83;59.49
13767;BME280;47980;48.794;9.176;2023-04-07T11:02:32;98092.97;;;14.44;57.69
13767;BME280;47980;48.794;9.176;2023-04-07T11:05:04;98090.72;;;14.46;57.03
13767;BME280;47980;48.794;9.176;2023-04-07T11:07:45;98090.50;;;14.00;57.61
13767;BME280;47980;48.794;9.176;2023-04-07T11:10:17;98099.00;;;14.41;58.30
13767;BME280;47980;48.794;9.176;2023-04-07T11:13:00;98093.59;;;14.37;57.44
13767;BME280;47980;48.794;9.176;2023-04-07T11:15:36;98094.53;;;13.94;57.75
13767;BME280;47980;48.794;9.176;2023-04-07T11:18:09;98098.25;;;13.89;56.94
13767;BME280;47980;48.794;9.176;2023-04-07T11:20:43;98099.25;;;14.01;57.72
13767;BME280;47980;48.794;9.176;2023-04-07T11:23:17;98100.41;;;13.08;59.42
13767;BME280;47980;48.794;9.176;2023-04-07T11:25:50;98097.50;;;13.57;59.46
13767;BME280;47980;48.794;9.176;2023-04-07T11:28:23;98097.66;;;13.64;58.46
13767;BME280;47980;48.794;9.176;2023-04-07T11:30:55;98098.13;;;12.79;62.03
13767;BME280;47980;48.794;9.176;2023-04-07T11:33:29;98101.50;;;12.51;63.93
13767;BME280;47980;48.794;9.176;2023-04-07T11:36:01;98102.59;;;13.18;63.73
13767;BME280;47980;48.794;9.176;2023-04-07T11:38:35;98099.72;;;13.39;65.70
13767;BME280;47980;48.794;9.176;2023-04-07T11:41:11;98104.53;;;13.34;63.33
13767;BME280;47980;48.794;9.176;2023-04-07T11:43:44;98114.66;;;13.28;64.53
13767;BME280;47980;48.794;9.176;2023-04-07T11:46:17;98114.16;;;13.10;62.88
13767;BME280;47980;48.794;9.176;2023-04-07T11:48:48;98124.22;;;13.17;62.49
13767;BME280;47980;48.794;9.176;2023-04-07T11:51:21;98130.13;;;13.10;63.35
13767;BME280;47980;48.794;9.176;2023-04-07T11:53:53;98133.44;;;13.19;62.97
13767;BME280;47980;48.794;9.176;2023-04-07T11:56:25;98132.41;;;12.96;65.09
13767;BME280;47980;48.794;9.176;2023-04-07T11:58:58;98140.72;;;12.79;69.98
13767;BME280;47980;48.794;9.176;2023-04-07T12:01:38;98138.41;;;12.52;73.34
13767;BME280;47980;48.794;9.176;2023-04-07T12:04:12;98145.34;;;12.29;77.20
13767;BME280;47980;48.794;9.176;2023-04-07T12:06:46;98145.13;;;11.97;78.11
13767;BME280;47980;48.794;9.176;2023-04-07T12:09:26;98154.75;;;11.90;78.35
13767;BME280;47980;48.794;9.176;2023-04-07T12:11:57;98154.16;;;11.72;77.98
13767;BME280;47980;48.794;9.176;2023-04-07T12:14:31;98154.34;;;11.54;81.14
13767;BME280;47980;48.794;9.176;2023-04-07T12:17:02;98151.25;;;11.65;81.44
13767;BME280;47980;48.794;9.176;2023-04-07T12:19:34;98145.22;;;11.76;82.46
13767;BME280;47980;48.794;9.176;2023-04-07T12:22:08;98152.50;;;11.67;83.45
13767;BME280;47980;48.794;9.176;2023-04-07T12:24:40;98150.72;;;11.71;82.47
13767;BME280;47980;48.794;9.176;2023-04-07T12:27:11;98149.53;;;11.81;78.07
13767;BME280;47980;48.794;9.176;2023-04-07T12:29:44;98145.88;;;11.73;78.31
13767;BME280;47980;48.794;9.176;2023-04-07T12:32:16;98139.94;;;12.13;75.53
13767;BME280;47980;48.794;9.176;2023-04-07T12:34:47;98150.53;;;12.38;74.16
13767;BME280;47980;48.794;9.176;2023-04-07T12:37:18;98154.81;;;12.67;72.16
13767;BME280;47980;48.794;9.176;2023-04-07T12:39:50;98149.56;;;13.11;71.71
13767;BME280;47980;48.794;9.176;2023-04-07T12:42:21;98150.88;;;13.17;71.48
13767;BME280;47980;48.794;9.176;2023-04-07T12:44:54;98150.41;;;13.27;72.13
13767;BME280;47980;48.794;9.176;2023-04-07T12:47:26;98155.19;;;12.93;73.42
13767;BME280;47980;48.794;9.176;2023-04-07T12:49:58;98146.91;;;12.70;75.85
13767;BME280;47980;48.794;9.176;2023-04-07T12:52:29;98147.03;;;12.74;76.05
13767;BME280;47980;48.794;9.176;2023-04-07T12:55:01;98146.03;;;12.79;76.38
13767;BME280;47980;48.794;9.176;2023-04-07T12:57:33;98137.88;;;12.87;75.62
13767;BME280;47980;48.794;9.176;2023-04-07T13:00:07;98140.13;;;13.13;77.15
13767;BME280;47980;48.794;9.176;2023-04-07T13:02:39;98132.97;;;13.01;73.79
13767;BME280;47980;48.794;9.176;2023-04-07T13:05:11;98129.38;;;13.10;73.86
13767;BME280;47980;48.794;9.176;2023-04-07T13:07:43;98134.13;;;13.16;72.54
13767;BME280;47980;48.794;9.176;2023-04-07T13:10:14;98135.66;;;12.49;74.58
13767;BME280;47980;48.794;9.176;2023-04-07T13:12:47;98130.25;;;12.86;75.99
13767;BME280;47980;48.794;9.176;2023-04-07T13:15:20;98128.88;;;13.20;75.81
13767;BME280;47980;48.794;9.176;2023-04-07T13:17:52;98137.13;;;13.15;75.48
13767;BME280;47980;48.794;9.176;2023-04-07T13:20:23;98139.94;;;13.06;73.26
13767;BME280;47980;48.794;9.176;2023-04-07T13:22:57;98143.44;;;13.10;74.54
13767;BME280;47980;48.794;9.176;2023-04-07T13:25:28;98147.09;;;13.18;74.09
13767;BME280;47980;48.794;9.176;2023-04-07T13:28:00;98148.75;;;12.94;74.38
13767;BME280;47980;48.794;9.176;2023-04-07T13:30:33;98154.31;;;13.17;72.80
13767;BME280;47980;48.794;9.176;2023-04-07T13:33:04;98152.22;;;12.83;75.30
13767;BME280;47980;48.794;9.176;2023-04-07T13:35:36;98151.25;;;12.63;77.71
13767;BME280;47980;48.794;9.176;2023-04-07T13:38:07;98153.41;;;12.85;77.29